createdAt,value
2022-09-28T00:02:13.449Z,14.00
2022-09-28T00:04:40.370Z,14.00
2022-09-28T00:07:07.375Z,13.95
2022-09-28T00:09:34.200Z,13.97
2022-09-28T00:12:01.258Z,13.99
2022-09-28T00:14:28.327Z,13.98
2022-09-28T00:16:55.343Z,13.90
2022-09-28T00:19:22.142Z,13.94
2022-09-28T00:21:49.170Z,13.91
2022-09-28T00:24:16.099Z,13.88
2022-09-28T00:26:48.441Z,13.89
2022-09-28T00:29:20.049Z,13.85
2022-09-28T00:31:47.242Z,13.87
2022-09-28T00:34:14.178Z,13.82
2022-09-28T00:36:43.730Z,13.78
2022-09-28T00:39:10.591Z,13.86
2022-09-28T00:41:37.526Z,13.79
2022-09-28T00:44:22.762Z,13.73
2022-09-28T00:46:53.774Z,13.72
2022-09-28T00:49:33.382Z,13.75
2022-09-28T00:52:00.233Z,13.72
2022-09-28T00:54:27.260Z,13.64
2022-09-28T00:56:54.062Z,13.66
2022-09-28T00:59:20.804Z,13.73
2022-09-28T01:01:48.616Z,13.79
2022-09-28T01:04:15.413Z,13.71
2022-09-28T01:06:42.166Z,13.71
2022-09-28T01:09:09.158Z,13.71
2022-09-28T01:11:36.997Z,13.66
2022-09-28T01:14:04.369Z,13.59
2022-09-28T01:16:56.337Z,13.64
2022-09-28T01:19:37.862Z,13.62
2022-09-28T01:22:27.753Z,13.52
2022-09-28T01:25:07.939Z,13.52
2022-09-28T01:27:59.781Z,13.47
2022-09-28T01:30:26.561Z,13.44
2022-09-28T01:33:19.352Z,13.39
2022-09-28T01:36:00.357Z,13.33
2022-09-28T01:38:30.903Z,13.34
2022-09-28T01:40:58.575Z,13.28
2022-09-28T01:43:27.097Z,13.30
2022-09-28T01:45:54.077Z,13.36
2022-09-28T01:48:27.226Z,13.26
2022-09-28T01:50:55.226Z,13.30
2022-09-28T01:53:40.389Z,13.14
2022-09-28T01:56:10.919Z,13.15
2022-09-28T01:58:45.521Z,13.17
2022-09-28T02:01:16.625Z,13.18
2022-09-28T02:03:48.864Z,13.19
2022-09-28T02:06:18.456Z,13.17
2022-09-28T02:08:57.146Z,13.24
2022-09-28T02:11:23.913Z,13.21
2022-09-28T02:13:58.761Z,13.21
2022-09-28T02:16:49.101Z,13.15
2022-09-28T02:19:18.181Z,13.10
2022-09-28T02:22:04.943Z,12.99
2022-09-28T02:24:39.791Z,12.90
2022-09-28T02:27:20.784Z,12.86
2022-09-28T02:29:48.823Z,12.85
2022-09-28T02:32:16.020Z,12.91
2022-09-28T02:34:42.803Z,12.92
2022-09-28T02:37:09.828Z,12.84
2022-09-28T02:39:36.605Z,12.76
2022-09-28T02:42:12.007Z,12.77
2022-09-28T02:45:10.193Z,12.85
2022-09-28T02:48:04.882Z,12.83
2022-09-28T02:50:51.788Z,12.74
2022-09-28T02:53:37.235Z,12.77
2022-09-28T02:56:26.242Z,12.78
2022-09-28T02:59:31.044Z,12.71
2022-09-28T03:02:16.943Z,12.68
2022-09-28T03:05:17.851Z,12.62
2022-09-28T03:08:03.950Z,12.66
2022-09-28T03:10:35.530Z,12.68
2022-09-28T03:13:02.520Z,12.63
2022-09-28T03:15:30.833Z,12.60
2022-09-28T03:17:58.004Z,12.56
2022-09-28T03:20:25.960Z,12.59
2022-09-28T03:23:19.711Z,12.53
2022-09-28T03:25:39.850Z,12.60
2022-09-28T03:28:06.632Z,12.53
2022-09-28T03:30:33.538Z,12.58
2022-09-28T03:33:00.850Z,12.57
2022-09-28T03:35:27.638Z,12.54
2022-09-28T03:37:56.082Z,12.48
2022-09-28T03:40:23.289Z,12.49
2022-09-28T03:42:50.098Z,12.52
2022-09-28T03:45:16.974Z,12.50
2022-09-28T03:47:47.178Z,12.47
2022-09-28T03:50:14.304Z,12.49
2022-09-28T03:52:41.294Z,12.44
2022-09-28T03:55:08.835Z,12.45
2022-09-28T03:57:35.566Z,12.41
2022-09-28T04:00:03.666Z,12.47
2022-09-28T04:02:30.903Z,12.50
2022-09-28T04:04:57.782Z,12.43
2022-09-28T04:07:26.922Z,12.50
2022-09-28T04:09:57.336Z,12.42
2022-09-28T04:12:24.150Z,12.45
2022-09-28T04:14:51.012Z,12.39
2022-09-28T04:17:18.018Z,12.32
2022-09-28T04:19:44.859Z,12.36
2022-09-28T04:22:11.658Z,12.35
2022-09-28T04:24:39.190Z,12.31
2022-09-28T04:27:24.546Z,12.31
2022-09-28T04:29:51.599Z,12.38
2022-09-28T04:32:18.368Z,12.35
2022-09-28T04:34:45.214Z,12.35
2022-09-28T04:37:12.259Z,12.36
2022-09-28T04:39:42.264Z,12.32
2022-09-28T04:42:12.101Z,12.53
2022-09-28T04:44:39.158Z,12.62
2022-09-28T04:47:05.930Z,12.57
2022-09-28T04:49:35.338Z,12.51
2022-09-28T04:52:02.454Z,12.47
2022-09-28T04:54:29.297Z,12.42
2022-09-28T04:56:56.114Z,12.42
2022-09-28T04:59:23.423Z,12.39
2022-09-28T05:01:50.229Z,12.39
2022-09-28T05:04:17.407Z,12.38
2022-09-28T05:06:45.283Z,12.29
2022-09-28T05:09:12.024Z,12.26
2022-09-28T05:11:38.784Z,12.33
2022-09-28T05:14:06.001Z,12.38
2022-09-28T05:16:33.948Z,12.37
2022-09-28T05:19:00.904Z,12.36
2022-09-28T05:21:29.382Z,12.37
2022-09-28T05:23:58.255Z,12.39
2022-09-28T05:26:25.091Z,12.39
2022-09-28T05:28:52.140Z,12.40
2022-09-28T05:31:18.976Z,12.39
2022-09-28T05:33:45.832Z,12.36
2022-09-28T05:36:12.901Z,12.38
2022-09-28T05:38:39.753Z,12.37
2022-09-28T05:41:07.046Z,12.43
2022-09-28T05:43:34.237Z,12.43
2022-09-28T05:46:01.115Z,12.42
2022-09-28T05:48:28.444Z,12.41
2022-09-28T05:50:55.600Z,12.41
2022-09-28T05:53:22.549Z,12.44
2022-09-28T05:55:49.420Z,12.47
2022-09-28T05:58:16.568Z,12.48
2022-09-28T06:00:43.509Z,12.51
2022-09-28T06:03:13.913Z,12.55
2022-09-28T06:05:41.090Z,12.51
2022-09-28T06:08:10.306Z,12.54
2022-09-28T06:10:37.238Z,12.55
2022-09-28T06:13:04.653Z,12.61
2022-09-28T06:15:34.407Z,12.62
2022-09-28T06:18:06.251Z,12.62
2022-09-28T06:20:35.951Z,12.68
2022-09-28T06:23:02.766Z,12.67
2022-09-28T06:25:29.748Z,12.71
2022-09-28T06:28:04.522Z,12.75
2022-09-28T06:30:33.059Z,12.75
2022-09-28T06:33:00.866Z,12.80
2022-09-28T06:35:30.338Z,12.81
2022-09-28T06:37:58.249Z,12.80
2022-09-28T06:40:25.514Z,12.83
2022-09-28T06:43:00.093Z,12.86
2022-09-28T06:45:28.136Z,12.90
2022-09-28T06:47:59.030Z,12.92
2022-09-28T06:50:27.184Z,12.92
2022-09-28T06:52:54.759Z,12.96
2022-09-28T06:55:21.887Z,12.96
2022-09-28T06:57:55.628Z,13.01
2022-09-28T07:00:22.714Z,13.04
2022-09-28T07:02:49.502Z,13.08
2022-09-28T07:05:16.415Z,13.04
2022-09-28T07:07:44.769Z,13.07
2022-09-28T07:10:11.910Z,13.11
2022-09-28T07:12:39.880Z,13.13
2022-09-28T07:15:07.458Z,13.16
2022-09-28T07:17:50.349Z,13.20
2022-09-28T07:20:21.810Z,13.22
2022-09-28T07:22:53.406Z,13.21
2022-09-28T07:25:20.571Z,13.23
2022-09-28T07:27:47.650Z,13.25
2022-09-28T07:30:14.759Z,13.26
2022-09-28T07:32:42.037Z,13.30
2022-09-28T07:35:09.716Z,13.35
2022-09-28T07:37:36.783Z,13.36
2022-09-28T07:40:25.455Z,13.39
2022-09-28T07:42:52.775Z,13.44
2022-09-28T07:45:25.665Z,13.49
2022-09-28T07:47:58.457Z,13.49
2022-09-28T07:50:25.639Z,13.55
2022-09-28T07:52:52.385Z,13.60
2022-09-28T07:55:19.184Z,13.63
2022-09-28T07:57:48.368Z,13.65
2022-09-28T08:00:15.746Z,13.71
2022-09-28T08:02:42.742Z,13.75
2022-09-28T08:05:10.119Z,13.81
2022-09-28T08:07:38.333Z,13.90
2022-09-28T08:10:05.654Z,13.96
2022-09-28T08:12:33.421Z,14.01
2022-09-28T08:15:00.230Z,14.10
2022-09-28T08:17:27.132Z,14.15
2022-09-28T08:20:12.601Z,14.21
2022-09-28T08:22:39.932Z,14.27
2022-09-28T08:25:07.555Z,14.35
2022-09-28T08:27:34.375Z,14.38
2022-09-28T08:30:01.162Z,14.45
2022-09-28T08:32:29.794Z,14.55
2022-09-28T08:34:56.587Z,14.55
2022-09-28T08:37:23.342Z,14.67
2022-09-28T08:39:50.437Z,14.78
2022-09-28T08:42:30.743Z,14.82
2022-09-28T08:45:00.348Z,14.95
2022-09-28T08:47:53.068Z,14.99
2022-09-28T08:50:24.263Z,14.99
2022-09-28T08:52:54.311Z,15.00
2022-09-28T08:55:39.560Z,15.08
2022-09-28T08:58:14.440Z,15.11
2022-09-28T09:00:49.341Z,15.23
2022-09-28T09:03:34.438Z,15.30
2022-09-28T09:06:18.499Z,15.35
2022-09-28T09:09:11.206Z,15.44
2022-09-28T09:12:03.483Z,15.50
2022-09-28T09:14:59.632Z,15.56
2022-09-28T09:17:52.026Z,15.66
2022-09-28T09:20:33.932Z,15.62
2022-09-28T09:23:01.869Z,15.66
2022-09-28T09:25:53.213Z,15.74
2022-09-28T09:28:29.586Z,15.84
2022-09-28T09:31:02.674Z,15.95
2022-09-28T09:34:00.359Z,16.03
2022-09-28T09:36:33.398Z,16.13
2022-09-28T09:39:26.759Z,16.20
2022-09-28T09:42:12.385Z,16.30
2022-09-28T09:44:42.588Z,16.28
2022-09-28T09:47:15.043Z,16.34
2022-09-28T09:50:05.496Z,16.49
2022-09-28T09:52:54.954Z,16.56
2022-09-28T09:55:30.068Z,16.63
2022-09-28T09:58:33.171Z,16.73
2022-09-28T10:01:07.197Z,16.78
2022-09-28T10:03:35.021Z,16.81
2022-09-28T10:06:05.146Z,16.92
2022-09-28T10:08:34.746Z,16.99
2022-09-28T10:11:07.623Z,17.08
2022-09-28T10:13:35.096Z,17.15
2022-09-28T10:16:02.109Z,17.21
2022-09-28T10:18:28.980Z,17.27
2022-09-28T10:20:56.105Z,17.28
2022-09-28T10:23:28.399Z,17.36
2022-09-28T10:25:59.497Z,17.45
2022-09-28T10:28:50.817Z,17.47
2022-09-28T10:31:35.992Z,17.51
2022-09-28T10:34:04.528Z,17.55
2022-09-28T10:36:38.329Z,17.60
2022-09-28T10:39:06.100Z,17.64
2022-09-28T10:41:32.940Z,17.67
2022-09-28T10:44:08.892Z,17.83
2022-09-28T10:46:36.281Z,17.83
2022-09-28T10:49:05.000Z,17.82
2022-09-28T10:51:51.824Z,17.80
2022-09-28T10:54:19.938Z,17.93
2022-09-28T10:56:47.204Z,17.90
2022-09-28T10:59:43.462Z,17.96
2022-09-28T11:02:13.310Z,18.02
2022-09-28T11:04:42.015Z,18.09
2022-09-28T11:07:19.333Z,18.05
2022-09-28T11:09:49.525Z,18.15
2022-09-28T11:12:38.328Z,18.19
2022-09-28T11:15:06.548Z,18.11
2022-09-28T11:17:38.571Z,18.23
2022-09-28T11:20:27.449Z,18.31
2022-09-28T11:22:56.804Z,18.32
2022-09-28T11:25:28.215Z,18.35
2022-09-28T11:28:02.099Z,18.46
2022-09-28T11:30:45.994Z,18.51
2022-09-28T11:33:37.219Z,18.48
2022-09-28T11:36:13.217Z,18.56
2022-09-28T11:38:55.297Z,18.52
2022-09-28T11:41:28.557Z,18.56
2022-09-28T11:44:01.667Z,18.64
2022-09-28T11:47:06.217Z,18.68
2022-09-28T11:49:40.131Z,18.64
2022-09-28T11:52:12.480Z,18.74
2022-09-28T11:54:50.020Z,18.67
2022-09-28T11:57:20.840Z,18.62
2022-09-28T11:59:52.080Z,18.67
2022-09-28T12:02:27.795Z,18.80
2022-09-28T12:05:01.063Z,18.75
2022-09-28T12:07:44.721Z,18.72
2022-09-28T12:10:50.897Z,18.78
2022-09-28T12:13:19.559Z,18.81
2022-09-28T12:16:20.050Z,18.87
2022-09-28T12:21:37.631Z,18.99
2022-09-28T12:24:29.434Z,18.98
2022-09-28T12:27:12.953Z,19.01
2022-09-28T12:30:00.291Z,19.02
2022-09-28T12:32:36.229Z,19.03
2022-09-28T12:35:03.696Z,19.01
2022-09-28T12:37:33.583Z,18.96
2022-09-28T12:40:20.645Z,19.03
2022-09-28T12:43:17.657Z,19.08
2022-09-28T12:46:15.569Z,19.01
2022-09-28T12:49:43.635Z,19.06
2022-09-28T12:51:49.607Z,19.08
2022-09-28T12:54:34.493Z,19.17
2022-09-28T12:57:29.985Z,19.11
2022-09-28T13:00:03.089Z,19.10
2022-09-28T13:03:07.069Z,19.12
2022-09-28T13:05:59.042Z,19.09
2022-09-28T13:08:34.738Z,19.08
2022-09-28T13:11:18.233Z,19.07
2022-09-28T13:13:58.160Z,19.06
2022-09-28T13:16:31.445Z,19.06
2022-09-28T13:19:20.628Z,19.07
2022-09-28T13:22:15.168Z,19.05
2022-09-28T13:24:44.272Z,19.09
2022-09-28T13:27:17.424Z,19.00
2022-09-28T13:29:44.394Z,18.97
2022-09-28T13:32:12.655Z,18.97
2022-09-28T13:34:39.986Z,18.94
2022-09-28T13:37:21.947Z,19.00
2022-09-28T13:39:52.867Z,18.94
2022-09-28T13:42:22.766Z,18.93
2022-09-28T13:44:59.472Z,18.84
2022-09-28T13:47:31.896Z,18.82
2022-09-28T13:50:25.715Z,18.79
2022-09-28T13:53:02.358Z,18.77
2022-09-28T13:55:32.936Z,18.82
2022-09-28T13:58:15.080Z,18.74
2022-09-28T14:00:56.728Z,18.75
2022-09-28T14:03:46.146Z,18.66
2022-09-28T14:06:30.359Z,18.62
2022-09-28T14:09:09.961Z,18.61
2022-09-28T14:11:36.913Z,18.53
2022-09-28T14:14:13.948Z,18.52
2022-09-28T14:16:41.465Z,18.46
2022-09-28T14:19:44.147Z,18.47
2022-09-28T14:22:17.646Z,18.43
2022-09-28T14:24:54.801Z,18.41
2022-09-28T14:27:37.850Z,18.39
2022-09-28T14:30:13.860Z,18.32
2022-09-28T14:32:42.902Z,18.32
2022-09-28T14:35:39.304Z,18.29
2022-09-28T14:38:38.145Z,18.25
2022-09-28T14:41:14.956Z,18.23
2022-09-28T14:43:44.867Z,18.10
2022-09-28T14:46:12.351Z,18.13
2022-09-28T14:48:58.228Z,18.16
2022-09-28T14:51:26.308Z,18.10
2022-09-28T14:53:54.697Z,18.07
2022-09-28T14:56:21.876Z,17.94
2022-09-28T14:58:53.416Z,17.99
2022-09-28T15:01:20.941Z,17.92
2022-09-28T15:03:48.868Z,17.91
2022-09-28T15:06:16.270Z,17.85
2022-09-28T15:08:43.024Z,17.84
2022-09-28T15:11:18.264Z,17.89
2022-09-28T15:13:45.432Z,17.86
2022-09-28T15:16:18.911Z,17.81
2022-09-28T15:19:18.773Z,17.83
2022-09-28T15:21:47.772Z,17.82
2022-09-28T15:24:33.964Z,17.87
2022-09-28T15:27:03.209Z,17.78
2022-09-28T15:29:33.423Z,17.77
2022-09-28T15:32:00.741Z,17.74
2022-09-28T15:34:52.001Z,17.71
2022-09-28T15:37:27.540Z,17.73
2022-09-28T15:39:54.544Z,17.71
2022-09-28T15:42:22.575Z,17.67
2022-09-28T15:45:23.006Z,17.68
2022-09-28T15:47:50.116Z,17.67
2022-09-28T15:50:30.492Z,17.64
2022-09-28T15:53:00.872Z,17.61
2022-09-28T15:55:32.487Z,17.57
2022-09-28T15:58:27.466Z,17.53
2022-09-28T16:01:18.414Z,17.55
2022-09-28T16:03:45.519Z,17.53
2022-09-28T16:06:12.326Z,17.46
2022-09-28T16:08:42.045Z,17.48
2022-09-28T16:11:24.239Z,17.43
2022-09-28T16:14:02.576Z,17.41
2022-09-28T16:16:31.080Z,17.41
2022-09-28T16:19:00.776Z,17.38
2022-09-28T16:21:46.716Z,17.27
2022-09-28T16:24:33.533Z,17.32
2022-09-28T16:27:04.800Z,17.37
2022-09-28T16:29:42.052Z,17.34
2022-09-28T16:32:33.620Z,17.31
2022-09-28T16:35:13.004Z,17.25
2022-09-28T16:37:43.322Z,17.22
2022-09-28T16:40:10.833Z,17.21
2022-09-28T16:42:44.402Z,17.21
2022-09-28T16:45:21.678Z,17.22
2022-09-28T16:47:52.984Z,17.18
2022-09-28T16:50:21.097Z,17.14
2022-09-28T16:53:08.625Z,17.13
2022-09-28T16:55:40.635Z,17.16
2022-09-28T16:58:08.193Z,17.09
2022-09-28T17:00:35.061Z,17.00
2022-09-28T17:03:02.304Z,16.95
2022-09-28T17:05:29.503Z,17.00
2022-09-28T17:08:03.438Z,16.99
2022-09-28T17:10:56.157Z,16.98
2022-09-28T17:13:33.286Z,16.98
2022-09-28T17:16:02.894Z,16.99
2022-09-28T17:18:31.933Z,16.94
2022-09-28T17:21:01.334Z,16.96
2022-09-28T17:23:28.384Z,16.92
2022-09-28T17:25:55.689Z,16.94
2022-09-28T17:28:24.304Z,17.00
2022-09-28T17:30:51.486Z,17.00
2022-09-28T17:33:18.447Z,16.95
2022-09-28T17:35:45.292Z,16.93
2022-09-28T17:38:13.194Z,16.88
2022-09-28T17:40:40.281Z,16.84
2022-09-28T17:43:07.298Z,16.80
2022-09-28T17:45:39.074Z,16.82
2022-09-28T17:48:16.219Z,16.84
2022-09-28T17:50:46.423Z,16.86
2022-09-28T17:53:13.905Z,16.83
2022-09-28T17:55:40.910Z,16.83
2022-09-28T17:58:18.603Z,16.80
2022-09-28T18:00:46.043Z,16.79
2022-09-28T18:03:21.291Z,16.74
2022-09-28T18:06:10.972Z,16.73
2022-09-28T18:08:37.998Z,16.69
2022-09-28T18:11:04.993Z,16.64
2022-09-28T18:13:31.795Z,16.60
2022-09-28T18:15:58.943Z,16.55
2022-09-28T18:18:25.877Z,16.55
2022-09-28T18:20:52.793Z,16.54
2022-09-28T18:23:19.954Z,16.54
2022-09-28T18:25:47.141Z,16.52
2022-09-28T18:28:13.963Z,16.47
2022-09-28T18:30:42.797Z,16.44
2022-09-28T18:33:09.974Z,16.43
2022-09-28T18:35:36.805Z,16.41
2022-09-28T18:38:05.353Z,16.42
2022-09-28T18:40:35.352Z,16.43
2022-09-28T18:43:02.914Z,16.45
2022-09-28T18:45:30.703Z,16.48
2022-09-28T18:47:57.772Z,16.42
2022-09-28T18:50:24.533Z,16.40
2022-09-28T18:52:51.626Z,16.37
2022-09-28T18:55:19.072Z,16.38
2022-09-28T18:57:46.779Z,16.41
2022-09-28T19:00:15.210Z,16.39
2022-09-28T19:02:42.270Z,16.34
2022-09-28T19:05:09.667Z,16.37
2022-09-28T19:07:36.948Z,16.33
2022-09-28T19:10:04.169Z,16.27
2022-09-28T19:12:32.125Z,16.27
2022-09-28T19:14:59.777Z,16.24
2022-09-28T19:17:26.684Z,16.21
2022-09-28T19:19:53.518Z,16.24
2022-09-28T19:22:20.588Z,16.24
2022-09-28T19:24:47.398Z,16.22
2022-09-28T19:27:14.260Z,16.19
2022-09-28T19:29:41.280Z,16.22
2022-09-28T19:32:08.078Z,16.20
2022-09-28T19:34:34.957Z,16.19
2022-09-28T19:37:03.901Z,16.16
2022-09-28T19:39:31.570Z,16.13
2022-09-28T19:41:59.799Z,16.09
2022-09-28T19:44:28.188Z,16.09
2022-09-28T19:47:00.381Z,16.07
2022-09-28T19:49:27.646Z,16.06
2022-09-28T19:52:14.930Z,16.03
2022-09-28T19:54:55.307Z,16.03
2022-09-28T19:57:24.724Z,15.97
2022-09-28T19:59:53.828Z,15.95
2022-09-28T20:02:22.713Z,15.95
2022-09-28T20:04:49.526Z,15.93
2022-09-28T20:07:16.609Z,15.92
2022-09-28T20:09:43.468Z,15.92
2022-09-28T20:12:10.227Z,15.88
2022-09-28T20:14:40.145Z,15.89
2022-09-28T20:17:07.557Z,15.90
2022-09-28T20:19:35.074Z,15.87
2022-09-28T20:22:03.103Z,15.86
2022-09-28T20:24:31.376Z,15.87
2022-09-28T20:26:58.572Z,15.88
2022-09-28T20:29:25.673Z,15.87
2022-09-28T20:31:52.566Z,15.85
2022-09-28T20:34:19.386Z,15.84
2022-09-28T20:36:46.400Z,15.82
2022-09-28T20:39:13.450Z,15.81
2022-09-28T20:41:40.340Z,15.80
2022-09-28T20:44:07.612Z,15.79
2022-09-28T20:46:36.347Z,15.77
2022-09-28T20:49:04.450Z,15.75
2022-09-28T20:51:31.592Z,15.75
2022-09-28T20:53:58.861Z,15.75
2022-09-28T20:56:37.705Z,15.76
2022-09-28T20:59:08.351Z,15.75
2022-09-28T21:01:35.292Z,15.73
2022-09-28T21:04:03.631Z,15.72
2022-09-28T21:06:33.063Z,15.70
2022-09-28T21:08:59.870Z,15.71
2022-09-28T21:11:28.084Z,15.70
2022-09-28T21:13:56.631Z,15.69
2022-09-28T21:16:23.390Z,15.68
2022-09-28T21:18:50.176Z,15.66
2022-09-28T21:21:18.528Z,15.66
2022-09-28T21:23:45.601Z,15.63
2022-09-28T21:26:14.345Z,15.61
2022-09-28T21:28:41.485Z,15.61
2022-09-28T21:31:10.235Z,15.59
2022-09-28T21:33:37.279Z,15.57
2022-09-28T21:36:05.596Z,15.56
2022-09-28T21:38:32.500Z,15.56
2022-09-28T21:40:59.533Z,15.53
2022-09-28T21:43:27.423Z,15.52
2022-09-28T21:45:54.769Z,15.52
2022-09-28T21:48:22.564Z,15.50
2022-09-28T21:50:56.975Z,15.51
2022-09-28T21:53:29.043Z,15.48
2022-09-28T21:55:57.973Z,15.47
2022-09-28T21:58:26.276Z,15.46
2022-09-28T22:01:07.626Z,15.44
2022-09-28T22:03:35.634Z,15.42
2022-09-28T22:06:03.314Z,15.44
2022-09-28T22:08:30.180Z,15.38
2022-09-28T22:11:11.718Z,15.40
2022-09-28T22:13:44.683Z,15.40
2022-09-28T22:16:12.131Z,15.38
2022-09-28T22:18:39.022Z,15.34
2022-09-28T22:21:08.346Z,15.35
2022-09-28T22:23:36.064Z,15.36
2022-09-28T22:26:12.978Z,15.34
2022-09-28T22:28:40.322Z,15.32
2022-09-28T22:31:07.139Z,15.30
2022-09-28T22:33:35.103Z,15.28
2022-09-28T22:36:02.202Z,15.29
2022-09-28T22:38:31.870Z,15.27
2022-09-28T22:40:58.794Z,15.28
2022-09-28T22:43:26.333Z,15.25
2022-09-28T22:46:09.000Z,15.25
2022-09-28T22:48:36.055Z,15.23
2022-09-28T22:51:03.294Z,15.21
2022-09-28T22:53:30.241Z,15.21
2022-09-28T22:55:57.680Z,15.20
2022-09-28T22:58:24.660Z,15.19
2022-09-28T23:00:51.417Z,15.18
2022-09-28T23:03:18.454Z,15.16
2022-09-28T23:05:54.840Z,15.17
2022-09-28T23:08:22.132Z,15.16
2022-09-28T23:10:49.156Z,15.12
2022-09-28T23:13:16.060Z,15.16
2022-09-28T23:15:43.182Z,15.14
2022-09-28T23:18:10.171Z,15.12
2022-09-28T23:20:36.987Z,15.09
2022-09-28T23:23:04.004Z,15.08
2022-09-28T23:25:31.072Z,15.07
2022-09-28T23:27:57.863Z,15.07
2022-09-28T23:30:24.994Z,15.07
2022-09-28T23:32:53.197Z,15.06
2022-09-28T23:35:20.152Z,15.06
2022-09-28T23:37:50.721Z,15.03
2022-09-28T23:40:17.678Z,15.03
2022-09-28T23:42:44.491Z,15.00
2022-09-28T23:45:11.570Z,14.99
2022-09-28T23:47:38.593Z,14.98
2022-09-28T23:50:05.991Z,14.95
2022-09-28T23:52:33.302Z,14.95
2022-09-28T23:55:00.093Z,14.91
2022-09-28T23:57:26.939Z,14.89
2022-09-28T23:59:53.982Z,14.89
